General Aviation Weather

Text Reports

Enter one or more of the following location identifiers separated by a space:

Zip Code, Four-Character ICAO or Three-Character IATA airport codes.

METAR - Aviation Routine Weather Report
K20V - Kremmling, Colorado
Updated at 6:36 AM GMT on August 29, 2014 (12:36 AM MDT):
METAR K20V 290636Z AUTO 00000KT 10SM CLR 06/04 A3033 RMK AO2
TAF - Terminal Area Forecast
K20V - Kremmling, Colorado
Updated at 6:36 AM GMT on August 29, 2014 (12:36 AM MDT):
No TAF is currently available for this location.
Decoded:
No decoded TAF is available.
PIREP - Pilot Weather Report
K20V - Kremmling, Colorado
Updated at 6:36 AM GMT on August 29, 2014 (12:36 AM MDT):
No PIREP is currently available for this location.
AIRMET - Airmens Meteorological Information
K20V - Kremmling, Colorado
Updated at 6:36 AM GMT on August 29, 2014 (12:36 AM MDT):
No AIRMET is currently available for this location.
SIGMET - Significant Meteorological Information
K20V - Kremmling, Colorado
Updated at 6:36 AM GMT on August 29, 2014 (12:36 AM MDT):
No SIGMET is currently available for this location.
NOTAM - Notice to Airmen
K20V - Kremmling, Colorado
Updated at 6:36 AM GMT on August 29, 2014 (12:36 AM MDT):
No NOTAM is currently available for this location.
Forecast Area
K20V - Kremmling, Colorado
Updated at 6:36 AM GMT on August 29, 2014 (12:36 AM MDT):
No NOTAM is currently available for this location.
Aviation Weather Maps